Meridian — EI6085 — position and weather

sailwx.info

Track history (hours):
 
Tides and Currents Weather Stations Pressure Air Temp Water Temp Dewpoint Dewpoint Depression Visibility Wind Speed Wind Dir Waves Ship Positions

Meridian

Last reported at 2015-May-29 09:12 UTC. Time now 2015-May-29 18:30 UTC.
Position N 54°38' W 008°27'.

Length 12 m.

Type: Fishing. MMSI: 250107450.

Date/timePositionNaut miles runAvg speedWind from/ knotsBaromVisibWave heightAir tempDewpointWater temp
2015-May-29 09:12N 54°38' W 008°27'0 0.0
2015-May-28 09:10N 54°38' W 008°27'  
2015-May-24 16:06N 54°38' W 008°27'0 0.5
2015-May-24 15:33N 54°38' W 008°26'5 5.1
2015-May-24 14:33N 54°35' W 008°34'0 0.3
2015-May-24 13:33N 54°36' W 008°34'1 1.4
2015-May-24 12:33N 54°36' W 008°36'1 0.6
2015-May-24 11:33N 54°36' W 008°35'0 0.2
2015-May-24 10:33N 54°36' W 008°35'1 1.1
2015-May-24 09:33N 54°36' W 008°34'2 2.0
2015-May-24 08:33N 54°36' W 008°31'4 3.5
2015-May-24 07:33N 54°38' W 008°27'0 0.0
2015-May-23 15:32N 54°38' W 008°27'3 3.2
2015-May-23 14:33N 54°36' W 008°30'1 1.3
2015-May-23 13:33N 54°35' W 008°32'1 0.6
2015-May-23 12:33N 54°35' W 008°31'1 1.4
2015-May-23 11:33N 54°34' W 008°29'0 0.2
2015-May-23 10:33N 54°34' W 008°30'1 0.8
2015-May-23 09:32N 54°35' W 008°28'4 3.7
2015-May-23 08:31N 54°38' W 008°27'0 0.2
2015-May-23 07:31N 54°38' W 008°27'0 0.0
2015-May-21 11:16N 54°38' W 008°27'0 0.0
2015-May-21 10:31N 54°38' W 008°27'0 0.0
2015-May-21 09:33N 54°38' W 008°27'2 0.0
2015-May-19 10:33N 54°36' W 008°27'1 1.4
2015-May-19 09:33N 54°38' W 008°26'  
Track history (hours):
 
Tides and Currents Weather Stations Pressure Air Temp Water Temp Dewpoint Dewpoint Depression Visibility Wind Speed Wind Dir Waves Ship Positions

Meridian

Last reported at 2015-May-29 09:12 UTC. Time now 2015-May-29 18:30 UTC.
Position N 54°38' W 008°27'.

Length 12 m.

Type: Fishing. MMSI: 250107450.

Date/timePositionNaut miles runAvg speedWind from/ knotsBaromVisibWave heightAir tempDewpointWater temp
2015-May-29 09:12N 54°38' W 008°27'0 0.0
2015-May-28 09:10N 54°38' W 008°27'  
2015-May-24 16:06N 54°38' W 008°27'0 0.5
2015-May-24 15:33N 54°38' W 008°26'5 5.1
2015-May-24 14:33N 54°35' W 008°34'0 0.3
2015-May-24 13:33N 54°36' W 008°34'1 1.4
2015-May-24 12:33N 54°36' W 008°36'1 0.6
2015-May-24 11:33N 54°36' W 008°35'0 0.2
2015-May-24 10:33N 54°36' W 008°35'1 1.1
2015-May-24 09:33N 54°36' W 008°34'2 2.0
2015-May-24 08:33N 54°36' W 008°31'4 3.5
2015-May-24 07:33N 54°38' W 008°27'0 0.0
2015-May-23 15:32N 54°38' W 008°27'3 3.2
2015-May-23 14:33N 54°36' W 008°30'1 1.3
2015-May-23 13:33N 54°35' W 008°32'1 0.6
2015-May-23 12:33N 54°35' W 008°31'1 1.4
2015-May-23 11:33N 54°34' W 008°29'0 0.2
2015-May-23 10:33N 54°34' W 008°30'1 0.8
2015-May-23 09:32N 54°35' W 008°28'4 3.7
2015-May-23 08:31N 54°38' W 008°27'0 0.2
2015-May-23 07:31N 54°38' W 008°27'0 0.0
2015-May-21 11:16N 54°38' W 008°27'0 0.0
2015-May-21 10:31N 54°38' W 008°27'0 0.0
2015-May-21 09:33N 54°38' W 008°27'2 0.0
2015-May-19 10:33N 54°36' W 008°27'1 1.4
2015-May-19 09:33N 54°38' W 008°26'  

Dump ship's entire track history